Flight Track Log - Related Links

Times and Time Zones

All times are in EDT time to prevent confusion due to time zone crossing. See the C-GYFB flight status page for this flight to view local times or setup timezone preferences in your user account.

Time Position Orientation Groundspeed Altitude Reporting Facility
EDT Latitude Longitude Course Direction KTS MPH feet Rate Location/Type
Thu 10:00:36 AM 45.3000 -75.6667 11° North 190 219 500  Level Montreal Center
Thu 10:01:36 AM 45.2667 -75.7000 215° Southwest 180 207 3,600 2,550 Climbing Montreal Center
Thu 10:02:36 AM 45.3000 -75.7833 300° West 270 311 5,600 2,650 Climbing Montreal Center
Thu 10:03:36 AM 45.3833 -75.7833 360° North 290 334 8,900 2,950 Climbing Montreal Center
Thu 10:04:36 AM 45.4833 -75.7500 13° North 310 357 11,500 2,650 Climbing Montreal Center
Thu 10:05:00 AM 45.9352 -76.0161 11° North  Level FlightAware Approximate
Thu 10:05:36 AM 45.5667 -75.7333 North 310 357 14,200  Level Montreal Center
Thu 10:06:00 AM 46.0456 -75.9846 11° North  Level FlightAware Approximate
Thu 10:06:36 AM 45.6500 -75.7000 16° North 320 368 16,500  Level Montreal Center
Thu 10:07:36 AM 45.7333 -75.6833 North 330 380 18,400 2,100 Climbing Montreal Center
Thu 10:08:36 AM 45.8333 -75.6500 13° North 330 380 20,700 2,000 Climbing Montreal Center
Thu 10:09:36 AM 45.9167 -75.6333 North 330 380 22,400 1,750 Climbing Montreal Center
Thu 10:10:36 AM 46.0167 -75.6000 13° North 350 403 24,200 1,650 Climbing Montreal Center
Thu 10:11:36 AM 46.1167 -75.5833 North 360 414 25,700 1,400 Climbing Montreal Center
Thu 10:12:36 AM 46.2167 -75.5500 13° North 370 426 27,000 1,600 Climbing Montreal Center
Thu 10:13:36 AM 46.3167 -75.5333 North 370 426 28,900 1,500 Climbing Montreal Center
Thu 10:14:36 AM 46.4167 -75.5000 13° North 370 426 30,000 1,250 Climbing Montreal Center
Thu 10:15:36 AM 46.5167 -75.4833 North 370 426 31,400 1,350 Climbing Montreal Center
Thu 10:16:36 AM 46.6167 -75.4500 13° North 350 403 32,700 1,050 Climbing Montreal Center
Thu 10:17:36 AM 46.7167 -75.4333 North 350 403 33,500 700 Climbing Montreal Center
Thu 10:18:36 AM 46.8167 -75.4000 13° North 360 414 34,100 700 Climbing Montreal Center
Thu 10:19:36 AM 46.9167 -75.3833 North 360 414 34,900 900 Climbing Montreal Center
Thu 10:20:36 AM 47.0167 -75.3500 13° North 360 414 35,900 700 Climbing Montreal Center
Thu 10:21:36 AM 47.1000 -75.3333 North 360 414 36,300 300 Climbing Montreal Center
Thu 10:22:36 AM 47.2000 -75.3000 13° North 360 414 36,500 300 Climbing Montreal Center
Thu 10:23:36 AM 47.3000 -75.2667 13° North 370 426 36,900 250 Climbing Montreal Center
Thu 10:24:36 AM 47.4000 -75.2500 North 380 437 37,000 50 Climbing Montreal Center
Thu 10:25:36 AM 47.5167 -75.2167 11° North 380 437 37,000  Level Montreal Center
Thu 10:26:36 AM 47.6167 -75.1667 19° North 390 449 37,000  Level Montreal Center
Thu 10:27:36 AM 47.7333 -75.1500 North 400 460 37,000  Level Montreal Center
Thu 10:28:36 AM 47.8500 -75.1167 11° North 410 472 37,000  Level Montreal Center
Thu 10:29:36 AM 47.9667 -75.0833 11° North 410 472 37,000  Level Montreal Center
Thu 10:30:36 AM 48.0667 -75.0667 North 410 472 37,000  Level Montreal Center
Thu 10:31:36 AM 48.1833 -75.0333 11° North 410 472 37,000  Level Montreal Center
Thu 10:32:36 AM 48.3000 -75.0000 11° North 410 472 37,000  Level Montreal Center
Thu 10:33:36 AM 48.4000 -74.9500 18° North 410 472 37,000  Level Montreal Center
Thu 10:34:36 AM 48.5167 -74.9333 North 410 472 37,000  Level Montreal Center
Thu 10:35:36 AM 48.6333 -74.9000 11° North 410 472 37,000  Level Montreal Center
Thu 10:36:36 AM 48.7667 -74.8667 North 410 472 37,000  Level Montreal Center
Thu 10:37:36 AM 48.8667 -74.8500 North 410 472 37,000  Level Montreal Center
Thu 10:38:36 AM 48.9833 -74.7833 21° North 410 472 37,000  Level Montreal Center
Thu 10:39:36 AM 49.1000 -74.7667 North 410 472 37,000  Level Montreal Center
Thu 10:40:36 AM 49.2000 -74.7333 12° North 410 472 37,000  Level Montreal Center
Thu 10:41:36 AM 49.3167 -74.7000 11° North 410 472 37,000  Level Montreal Center
Thu 10:42:36 AM 49.4333 -74.6667 11° North 410 472 37,000  Level Montreal Center
Thu 10:43:36 AM 49.5500 -74.6500 North 410 472 37,000  Level Montreal Center
Thu 10:44:36 AM 49.6667 -74.6167 10° North 420 483 37,000  Level Montreal Center
Thu 10:45:36 AM 49.7833 -74.5667 15° North 420 483 37,000  Level Montreal Center
Thu 10:46:36 AM 49.9000 -74.5333 10° North 420 483 37,000  Level Montreal Center
Thu 10:47:36 AM 50.0000 -74.5000 12° North 430 495 37,000  Level Montreal Center
Thu 10:48:36 AM 50.1333 -74.4667 North 430 495 37,000  Level Montreal Center
Thu 10:49:36 AM 50.2500 -74.4167 15° North 430 495 37,000  Level Montreal Center
Thu 10:50:36 AM 50.3667 -74.3833 10° North 430 495 37,000  Level Montreal Center
Thu 10:51:36 AM 50.4833 -74.3500 10° North 430 495 37,000  Level Montreal Center
Thu 10:52:36 AM 50.6000 -74.3167 10° North 430 495 37,000  Level Montreal Center
Thu 10:53:36 AM 50.7167 -74.2667 15° North 430 495 37,000  Level Montreal Center
Thu 10:54:36 AM 50.8333 -74.2333 10° North 430 495 37,000  Level Montreal Center
Thu 10:55:36 AM 50.9667 -74.2000 North 430 495 37,000  Level Montreal Center
Thu 10:56:36 AM 51.0667 -74.1667 12° North 430 495 37,000  Level Montreal Center
Thu 10:57:36 AM 51.2000 -74.1333 North 440 506 37,000  Level Montreal Center
Thu 10:58:36 AM 51.3167 -74.0833 15° North 440 506 37,000  Level Montreal Center
Thu 10:59:36 AM 51.4333 -74.0500 10° North 440 506 37,000  Level Montreal Center
Thu 11:00:36 AM 51.5500 -74.0167 10° North 440 506 37,000  Level Montreal Center
Thu 11:01:36 AM 51.6667 -73.9833 10° North 440 506 37,000  Level Montreal Center
Thu 11:02:36 AM 51.8000 -73.9167 17° North 440 506 37,000  Level Montreal Center
Thu 11:03:36 AM 51.9167 -73.8833 10° North 440 506 37,000  Level Montreal Center
Thu 11:04:36 AM 52.0333 -73.8500 10° North 440 506 37,000  Level Montreal Center
Thu 11:05:36 AM 52.1667 -73.8167 North 440 506 37,000  Level Montreal Center
Thu 11:06:36 AM 52.3000 -73.7667 13° North 440 506 37,000  Level Montreal Center
Thu 11:07:36 AM 52.4167 -73.7333 10° North 440 506 37,000  Level Montreal Center
Thu 11:08:36 AM 52.5333 -73.7000 10° North 440 506 37,000  Level Montreal Center
Thu 11:09:36 AM 52.6667 -73.6667 North 440 506 37,000  Level Montreal Center
Thu 11:10:36 AM 52.7833 -73.6000 19° North 440 506 37,000  Level Montreal Center
Thu 11:11:36 AM 52.9000 -73.5667 10° North 440 506 37,000  Level Montreal Center
Thu 11:12:36 AM 53.0167 -73.5333 10° North 450 518 37,000  Level Montreal Center
Thu 11:13:36 AM 53.1500 -73.5000 North 450 518 37,000  Level Montreal Center
Thu 11:14:36 AM 53.2667 -73.4333 19° North 450 518 37,000  Level Montreal Center
Thu 11:15:36 AM 53.3833 -73.4000 10° North 450 518 37,000  Level Montreal Center
Thu 11:16:36 AM 53.5167 -73.3500 13° North 450 518 37,000  Level Montreal Center
Thu 11:17:36 AM 53.6333 -73.3000 14° North 450 518 37,000  Level Montreal Center
Thu 11:18:36 AM 53.7500 -73.2500 14° North 450 518 37,000  Level Montreal Center
Thu 11:19:06 AM 53.8167 -73.2500 360° North 450 518 37,000  Level Montreal Center
Thu 11:20:06 AM 53.9333 -73.1833 19° North 450 518 37,000  Level Montreal Center
Thu 11:21:06 AM 54.0667 -73.1500 North 450 518 37,000  Level Montreal Center
Thu 11:22:06 AM 54.2000 -73.1167 North 450 518 37,000  Level Montreal Center
Thu 11:23:06 AM 54.3167 -73.0500 18° North 450 518 37,000  Level Montreal Center
Thu 11:24:06 AM 54.4333 -73.0167 North 450 518 37,000  Level Montreal Center
Thu 11:25:06 AM 54.5500 -72.9667 14° North 450 518 37,000  Level Montreal Center
Thu 11:26:06 AM 54.6833 -72.9333 North 450 518 37,000  Level Montreal Center
Thu 11:27:06 AM 54.8000 -72.8667 18° North 450 518 37,000  Level Montreal Center
Thu 11:28:06 AM 54.9333 -72.8333 North 450 518 37,000  Level Montreal Center
Thu 11:29:06 AM 55.0500 -72.7833 14° North 450 518 37,000  Level Montreal Center
Thu 11:30:06 AM 55.1667 -72.7167 18° North 450 518 37,000  Level Montreal Center
Thu 11:31:06 AM 55.2833 -72.6833 North 450 518 37,000  Level Montreal Center
Thu 11:32:06 AM 55.4167 -72.6333 12° North 450 518 37,000  Level Montreal Center
Thu 11:33:06 AM 55.5333 -72.6000 North 440 506 37,000  Level Montreal Center
Thu 11:34:06 AM 55.6500 -72.5333 18° North 440 506 37,000  Level Montreal Center
Thu 11:35:06 AM 55.7833 -72.4833 12° North 450 518 37,000  Level Montreal Center
Thu 11:36:06 AM 55.9000 -72.4500 North 450 518 37,000  Level Montreal Center
Thu 11:37:06 AM 56.0333 -72.3833 16° North 440 506 37,000  Level Montreal Center
Thu 11:38:06 AM 56.1500 -72.3333 13° North 450 518 37,000  Level Montreal Center
Thu 11:39:06 AM 56.2667 -72.3000 North 450 518 37,000  Level Montreal Center
Thu 11:40:06 AM 56.4000 -72.2500 12° North 460 529 37,000  Level Montreal Center
Thu 11:41:06 AM 56.5167 -72.2167 North 450 518 37,000  Level Montreal Center
Thu 11:42:07 AM 56.6500 -72.1333 19° North 450 518 37,000  Level Montreal Center
Thu 11:43:07 AM 56.7667 -72.1000 North 450 518 37,000  Level Montreal Center
Thu 11:44:07 AM 56.8833 -72.0500 13° North 450 518 37,000  Level Montreal Center
Thu 11:45:06 AM 57.0167 -72.0000 12° North 450 518 37,000  Level Montreal Center
Thu 11:46:06 AM 57.1333 -71.9333 17° North 450 518 37,000  Level Montreal Center
Thu 11:47:06 AM 57.2667 -71.8833 11° North 450 518 37,000  Level Montreal Center
Thu 11:48:06 AM 57.3833 -71.8333 13° North 450 518 37,000  Level Montreal Center
Thu 11:49:06 AM 57.5000 -71.8000 North 450 518 37,000  Level Montreal Center
Thu 11:50:06 AM 57.6333 -71.7167 18° North 450 518 37,000  Level Montreal Center
Thu 11:51:07 AM 57.7500 -71.6667 13° North 450 518 37,000  Level Montreal Center
Thu 11:52:07 AM 57.8667 -71.6333 North 450 518 37,000  Level Montreal Center
Thu 11:53:06 AM 58.0000 -71.5500 18° North 450 518 37,000  Level Montreal Center
Thu 11:54:06 AM 58.1167 -71.5000 13° North 450 518 37,000  Level Montreal Center
Thu 11:55:06 AM 58.2333 -71.4500 13° North 450 518 37,000  Level Montreal Center
Thu 11:56:06 AM 58.3667 -71.3667 18° North 460 529 37,000  Level Montreal Center
Thu 11:57:06 AM 58.4833 -71.3333 North 440 506 37,000  Level Montreal Center
Thu 11:58:06 AM 58.6000 -71.2833 13° North 460 529 37,000  Level Montreal Center
Thu 11:59:06 AM 58.7333 -71.2333 11° North 440 506 37,000  Level Montreal Center
Thu 12:00:06 PM 58.8500 -71.1500 20° North 460 529 37,000  Level Montreal Center
Thu 12:01:06 PM 58.9667 -71.1000 12° North 460 529 37,000  Level Montreal Center
Thu 12:02:06 PM 59.1000 -71.0500 11° North 450 518 37,000  Level Montreal Center
Thu 12:03:06 PM 59.2167 -70.9667 20° North 460 529 37,000  Level Montreal Center
Thu 12:04:06 PM 59.3500 -70.9167 11° North 450 518 37,000  Level Montreal Center
Thu 12:05:06 PM 59.4667 -70.8667 12° North 450 518 37,000  Level Montreal Center
Thu 12:06:06 PM 59.6000 -70.8167 11° North 460 529 37,000  Level Montreal Center
Thu 12:07:06 PM 59.7167 -70.7333 20° North 450 518 37,000  Level Montreal Center
Thu 12:08:06 PM 59.8333 -70.6833 12° North 450 518 37,000  Level Montreal Center
Thu 12:09:06 PM 59.9667 -70.6167 14° North 450 518 37,000  Level Montreal Center
Thu 12:10:06 PM 60.0833 -70.5667 12° North 450 518 37,000  Level Montreal Center
Thu 12:11:06 PM 60.2000 -70.4833 20° North 450 518 37,000  Level Montreal Center
Thu 12:12:06 PM 60.3333 -70.4333 11° North 450 518 37,000  Level Montreal Center
Thu 12:13:06 PM 60.4500 -70.3667 16° North 450 518 37,000  Level Montreal Center
Thu 12:14:06 PM 60.5667 -70.2833 19° North 460 529 37,000  Level Montreal Center
Thu 12:15:06 PM 60.7000 -70.2333 10° North 450 518 37,000  Level Montreal Center
Thu 12:16:06 PM 60.8167 -70.1667 16° North 460 529 37,000  Level Montreal Center
Thu 12:17:06 PM 60.9500 -70.1167 10° North 450 518 37,000  Level Montreal Center
Thu 12:18:06 PM 61.0667 -70.0333 19° North 460 529 37,000  Level Montreal Center
Thu 12:19:06 PM 61.2000 -69.9667 14° North 460 529 37,000  Level Montreal Center
Thu 12:20:06 PM 61.3167 -69.9167 12° North 460 529 37,000  Level Montreal Center
Thu 12:21:06 PM 61.4333 -69.8167 22° Northeast 460 529 37,000  Level Montreal Center
Thu 12:22:06 PM 61.5667 -69.7500 13° North 460 529 37,000  Level Montreal Center
Thu 12:23:06 PM 61.6833 -69.7000 11° North 460 529 37,000  Level Montreal Center
Thu 12:24:06 PM 61.8167 -69.6000 20° North 460 529 37,000  Level Montreal Center
Thu 12:25:06 PM 61.9333 -69.5500 11° North 460 529 37,000  Level Montreal Center
Thu 12:26:06 PM 62.0667 -69.4833 13° North 460 529 37,000 -400 Level Montreal Center
Thu 12:27:06 PM 62.1833 -69.4167 15° North 460 529 36,200 -1,750 Descending Montreal Center
Thu 12:28:06 PM 62.3167 -69.3167 19° North 470 541 33,500 -2,700 Descending Montreal Center
Thu 12:29:06 PM 62.4333 -69.2500 15° North 480 552 30,800 -3,000 Descending Montreal Center
Thu 12:30:06 PM 62.5667 -69.1167 25° Northeast 500 575 27,500 -3,100 Descending Montreal Center
Thu 12:31:06 PM 62.7000 -69.0167 19° North 500 575 24,600 -2,950 Descending Montreal Center
Thu 12:32:06 PM 62.8333 -68.8833 25° Northeast 500 575 21,600 -2,700 Descending Montreal Center
Thu 12:33:06 PM 62.9500 -68.7667 24° Northeast 490 564 19,200 -2,500 Descending Montreal Center
Thu 12:34:06 PM 63.0667 -68.6333 27° Northeast 480 552 16,600 -2,500 Descending Montreal Center
Thu 12:35:06 PM 63.1833 -68.5333 21° North 450 518 14,200 -2,400 Descending Montreal Center
Thu 12:36:06 PM 63.2833 -68.4333 24° Northeast 430 495 11,800 -2,100 Descending Montreal Center
Thu 12:37:06 PM 63.3833 -68.3333 24° Northeast 370 426 10,000 -1,800 Descending Montreal Center
Thu 12:38:06 PM 63.4500 -68.2333 34° Northeast 300 345 8,200 -2,250 Descending Montreal Center
Thu 12:39:06 PM 63.5333 -68.2500 355° North 270 311 5,500 -2,500 Descending Montreal Center
Thu 12:40:06 PM 63.6000 -68.3167 336° Northwest 280 322 3,200 -1,450 Descending Montreal Center
Thu 12:41:06 PM 63.6500 -68.3333 352° North 230 265 2,600 -650 Descending Montreal Center
Thu 12:42:06 PM 63.7000 -68.3667 344° North 180 207 1,900 -750 Descending Montreal Center
Thu 12:43:06 PM 63.7333 -68.3833 348° North 150 173 1,100 -800 Descending Montreal Center
Thu 12:44:06 PM 63.7667 -68.4667 312° West 140 161 300 -500 Descending Montreal Center
Thu 12:45:06 PM 63.7833 -68.5000 319° Northwest 80 92 100 -200 Descending Montreal Center

Login

Don't have an account? Register now (free) for customized features, flight alerts, and more!